Disclaimer

Please do not use the information listed here in-flight or in-navigation, as they are not provided to us by the airports but are provided by volunteers, so they might be outdated.

Search


Regions


Airport information page

Radio informations:
Tower (TWR) - 124.15 MHz
Ground (GND) - 121.75 MHz
Automatic Terminal Information Service (ATIS) - 128.475 MHz
PYRENEES APP - 121.175 MHz

Airport informations:
Latitude: 43° 22' 48.00" N
Longitude: 000° 25' 07.00" W
Elevation: 616 feet - 188 meters
Operating hours: 24 hour operations
Operating agency: Civil government, landing fees and diplomatic clearance may be required
Timezone: UTC+1(+2DT) - Last Sunday in March to last Sunday in October
Fuel: Jet A1, without icing nhibitor.

100/130 MIL Spec, low lead, aviation gasoline (BLUE)

Runway information:
13/31 - 8202 x 148 feet< - >2500 x 45 meters

Recent METARs:
LFBP 170730Z AUTO 13002KT CAVOK 06/05 Q1017 NOSIG
LFBP 170800Z AUTO 12003KT CAVOK 08/07 Q1017 NOSIG
LFBP 170830Z AUTO 12004KT CAVOK 10/08 Q1017 NOSIG

Airport on the map: